Thunder radar more information blitzortung!


Radar de pluja more information rain snow radar


Visita la nostra xarxa de llocs de meteo:

Template documentation
and downloads

And another site



No particular awareness of the weather is required.    There are no Weather-warnings

Pagina Historial Weather Underground text

Diari Resum Novembre 28, 2017 Unitats:  Mètric    Imperial   Tant
« Previous Dia
SegĂźent Dia »
Diari Setmana Mensual Anual Personalitzada
  Maxima: Minima: Media:
Temperatura: 13.1 °C 1.9 °C 7.8 °C
Punt de rosada: 2.8 °C -5.4 °C -1.9 °C
Humitat: 68 % 40 % 51 %
Wind Speed: 20.4 km/h 0.0 km/h 4.2 km/h
RĂ fegues de vent: 20.4 km/h - -
Vent:- - South
Pression baro: 1023.9 hPa 1010.7 hPa -
Precipitacions: 0.0 mm    
Historical Graphs
 
 
Dades de taula per Novembre 28, 2017
Temps Temperatura Punt de rosada Pression baro Vent Wind Speed RĂ fegues de vent Humitat Rainfall Rate (Hourly)
00:03 4.2 °C -2.4 °C 1023.9 hPa West 1.9 km/h   62 % 0.0 mm
00:05 2.2 °C -3.1 °C 1018.8 hPa Calm   3.2 km/h 68 % 0.0 mm
00:08 4.2 °C -2.4 °C 1023.9 hPa Calm     62 % 0.0 mm
00:13 4.1 °C -2.6 °C 1023.9 hPa Calm     62 % 0.0 mm
00:15 2.2 °C -3.1 °C 1018.8 hPa Calm   3.2 km/h 68 % 0.0 mm
00:25 2.2 °C -3.1 °C 1018.8 hPa SW 1.6 km/h 1.6 km/h 68 % 0.0 mm
00:35 1.9 °C -3.4 °C 1018.8 hPa SW 1.6 km/h 3.2 km/h 68 % 0.0 mm
00:45 2.0 °C -3.3 °C 1018.8 hPa SW 1.6 km/h 3.2 km/h 68 % 0.0 mm
00:55 1.9 °C -3.4 °C 1018.8 hPa Calm   3.2 km/h 68 % 0.0 mm
01:05 2.0 °C -3.5 °C 1018.8 hPa WSW 1.6 km/h 3.2 km/h 67 % 0.0 mm
01:15 1.9 °C -3.4 °C 1018.8 hPa Calm   3.2 km/h 68 % 0.0 mm
01:25 1.9 °C -3.4 °C 1018.8 hPa West 3.2 km/h 3.2 km/h 68 % 0.0 mm
01:35 2.2 °C -3.3 °C 1018.8 hPa West 1.6 km/h 3.2 km/h 67 % 0.0 mm
01:45 2.2 °C -3.1 °C 1018.8 hPa Calm   3.2 km/h 68 % 0.0 mm
01:55 2.0 °C -3.5 °C 1018.8 hPa West 3.2 km/h 3.2 km/h 67 % 0.0 mm
02:05 2.0 °C -3.5 °C 1018.8 hPa WNW 1.6 km/h 1.6 km/h 67 % 0.0 mm
02:15 2.1 °C -3.4 °C 1018.8 hPa NW 1.6 km/h 4.8 km/h 67 % 0.0 mm
02:25 2.1 °C -3.6 °C 1018.8 hPa WNW 1.6 km/h 3.2 km/h 66 % 0.0 mm
02:35 2.5 °C -3.0 °C 1018.8 hPa West 1.6 km/h 3.2 km/h 67 % 0.0 mm
02:45 3.0 °C -2.7 °C 1018.8 hPa West 1.6 km/h 6.4 km/h 66 % 0.0 mm
02:55 3.3 °C -2.7 °C 1018.8 hPa NW 1.6 km/h 4.8 km/h 65 % 0.0 mm
03:05 3.7 °C -2.5 °C 1018.8 hPa North 3.2 km/h 4.8 km/h 64 % 0.0 mm
03:15 4.2 °C -2.0 °C 1018.8 hPa NNE 1.6 km/h 4.8 km/h 64 % 0.0 mm
03:25 4.4 °C -2.1 °C 1018.8 hPa NNE 3.2 km/h 3.2 km/h 63 % 0.0 mm
03:35 4.7 °C -1.8 °C 1018.8 hPa NNE 1.6 km/h 4.8 km/h 63 % 0.0 mm
03:45 5.2 °C -1.5 °C 1018.8 hPa North 3.2 km/h 3.2 km/h 62 % 0.0 mm
03:55 5.4 °C -1.3 °C 1019.9 hPa North 3.2 km/h 6.4 km/h 62 % 0.0 mm
04:05 5.5 °C -1.4 °C 1018.8 hPa NE 4.8 km/h 4.8 km/h 61 % 0.0 mm
04:15 5.9 °C -1.1 °C 1018.8 hPa NE 1.6 km/h 4.8 km/h 61 % 0.0 mm
04:25 6.3 °C -0.9 °C 1018.8 hPa NNE 1.6 km/h 4.8 km/h 60 % 0.0 mm
04:35 6.8 °C -0.4 °C 1018.8 hPa NNE 3.2 km/h 4.8 km/h 60 % 0.0 mm
04:45 7.0 °C -0.5 °C 1018.8 hPa NNE 4.8 km/h 4.8 km/h 59 % 0.0 mm
10:46 7.0 °C -0.7 °C 1018.8 hPa NNE 5.6 km/h 5.6 km/h 58 % 0.0 mm
10:51 7.2 °C -0.5 °C 1018.8 hPa ENE 3.7 km/h 3.7 km/h 58 % 0.0 mm
10:56 7.3 °C -0.7 °C 1018.8 hPa North 7.4 km/h 7.4 km/h 57 % 0.0 mm
11:01 7.3 °C -0.7 °C 1018.8 hPa NNE 7.4 km/h 7.4 km/h 57 % 0.0 mm
11:06 7.4 °C -0.6 °C 1018.8 hPa NE 9.3 km/h 9.3 km/h 57 % 0.0 mm
11:11 7.8 °C -0.2 °C 1018.8 hPa NE 4.7 km/h 4.7 km/h 57 % 0.0 mm
11:24 8.1 °C -0.2 °C 1018.8 hPa ESE 5.6 km/h 5.6 km/h 56 % 0.0 mm
11:29 8.5 °C 0.2 °C 1018.8 hPa WNW 7.4 km/h 7.4 km/h 56 % 0.0 mm
11:34 8.6 °C 0.3 °C 1018.8 hPa NNE 7.4 km/h 7.4 km/h 56 % 0.0 mm
11:40 8.6 °C 0.1 °C 1018.8 hPa NE 3.2 km/h 3.2 km/h 55 % 0.0 mm
11:57 9.0 °C 0.4 °C 1018.8 hPa WNW 3.7 km/h 3.7 km/h 55 % 0.0 mm
12:02 9.6 °C 0.7 °C 1017.8 hPa ENE 2.6 km/h 2.6 km/h 54 % 0.0 mm
12:07 9.4 °C 0.3 °C 1017.8 hPa ENE 7.4 km/h 7.4 km/h 53 % 0.0 mm
12:28 9.6 °C 0.7 °C 1017.8 hPa NNE 7.4 km/h 7.4 km/h 54 % 0.0 mm
12:33 9.9 °C 0.8 °C 1016.8 hPa NE 5.6 km/h 5.6 km/h 53 % 0.0 mm
12:39 10.2 °C 1.1 °C 1016.8 hPa NNE 5.6 km/h 5.6 km/h 53 % 0.0 mm
12:44 10.2 °C 1.1 °C 1016.8 hPa ENE 5.6 km/h 5.6 km/h 53 % 0.0 mm
12:49 10.5 °C 1.3 °C 1015.8 hPa ESE 3.7 km/h 3.7 km/h 53 % 0.0 mm
12:54 11.1 °C 1.6 °C 1015.8 hPa ESE 3.7 km/h 3.7 km/h 52 % 0.0 mm
12:59 11.5 °C 2.0 °C 1015.8 hPa SSW 3.7 km/h 3.7 km/h 52 % 0.0 mm
13:04 11.9 °C 2.3 °C 1015.8 hPa ESE 3.7 km/h 3.7 km/h 52 % 0.0 mm
13:09 12.6 °C 2.7 °C 1015.8 hPa SE 5.3 km/h 5.3 km/h 51 % 0.0 mm
13:19 11.8 °C 2.0 °C 1014.8 hPa East 7.4 km/h 7.4 km/h 51 % 0.0 mm
13:24 11.9 °C 2.1 °C 1014.8 hPa NW 3.9 km/h 3.9 km/h 51 % 0.0 mm
13:29 12.3 °C 2.4 °C 1014.8 hPa West 5.6 km/h 5.6 km/h 51 % 0.0 mm
13:34 12.7 °C 2.8 °C 1014.8 hPa WNW 9.3 km/h 9.3 km/h 51 % 0.0 mm
13:39 12.9 °C 2.7 °C 1014.8 hPa West 18.5 km/h 18.5 km/h 50 % 0.0 mm
13:44 13.0 °C 2.5 °C 1014.8 hPa WNW 16.7 km/h 16.7 km/h 49 % 0.0 mm
13:49 13.0 °C 2.5 °C 1014.8 hPa SW 11.1 km/h 11.1 km/h 49 % 0.0 mm
13:50 13.1 °C 2.3 °C 1014.8 hPa WSW 11.1 km/h 11.1 km/h 48 % 0.0 mm
13:55 13.0 °C 1.6 °C 1014.8 hPa WSW 20.4 km/h 20.4 km/h 46 % 0.0 mm
14:00 12.8 °C 1.2 °C 1014.8 hPa West 17.2 km/h 17.2 km/h 45 % 0.0 mm
14:05 12.8 °C 0.8 °C 1014.8 hPa WSW 18.5 km/h 18.5 km/h 44 % 0.0 mm
14:10 12.8 °C 0.2 °C 1014.8 hPa West 14.8 km/h 14.8 km/h 42 % 0.0 mm
14:15 12.9 °C 0.6 °C 1014.8 hPa West 13.0 km/h 13.0 km/h 43 % 0.0 mm
14:20 12.8 °C 0.2 °C 1014.8 hPa NW 16.7 km/h 16.7 km/h 42 % 0.0 mm
14:25 12.9 °C -0.1 °C 1014.8 hPa WNW 14.8 km/h 14.8 km/h 41 % 0.0 mm
14:35 12.9 °C -0.1 °C 1014.8 hPa West 5.6 km/h 5.6 km/h 41 % 0.0 mm
14:50 12.8 °C -0.2 °C 1013.8 hPa West 5.6 km/h 5.6 km/h 41 % 0.0 mm
14:55 12.8 °C -0.2 °C 1013.8 hPa WNW 5.6 km/h 5.6 km/h 41 % 0.0 mm
15:00 12.8 °C -0.2 °C 1013.8 hPa East 9.3 km/h 9.3 km/h 41 % 0.0 mm
15:05 12.8 °C -0.2 °C 1013.8 hPa NW 5.6 km/h 5.6 km/h 41 % 0.0 mm
15:10 12.8 °C -0.2 °C 1013.8 hPa SW 5.6 km/h 5.6 km/h 41 % 0.0 mm
15:15 12.8 °C -0.2 °C 1013.8 hPa WNW 7.9 km/h 7.9 km/h 41 % 0.0 mm
15:25 12.8 °C -0.2 °C 1013.8 hPa West 3.7 km/h 3.7 km/h 41 % 0.0 mm
15:30 12.6 °C -0.3 °C 1012.8 hPa North 7.4 km/h 7.4 km/h 41 % 0.0 mm
15:45 12.4 °C -0.5 °C 1013.8 hPa WSW 7.4 km/h 7.4 km/h 41 % 0.0 mm
15:55 12.7 °C -0.2 °C 1013.8 hPa NW 9.3 km/h 9.3 km/h 41 % 0.0 mm
16:00 12.8 °C -0.2 °C 1013.8 hPa WSW 1.9 km/h 2.3 km/h 41 % 0.0 mm
16:05 12.7 °C -0.2 °C 1013.8 hPa WNW 3.5 km/h 3.5 km/h 41 % 0.0 mm
16:15 12.9 °C -0.1 °C 1013.8 hPa WSW 5.6 km/h 5.6 km/h 41 % 0.0 mm
16:20 12.9 °C -0.1 °C 1013.8 hPa SW 1.9 km/h 1.9 km/h 41 % 0.0 mm
16:25 12.6 °C -0.3 °C 1013.8 hPa North 1.9 km/h 1.9 km/h 41 % 0.0 mm
16:35 12.5 °C -0.8 °C 1013.8 hPa NNW 2.6 km/h 2.6 km/h 40 % 0.0 mm
16:40 12.4 °C -0.8 °C 1013.8 hPa SW 3.7 km/h 3.7 km/h 40 % 0.0 mm
16:45 12.3 °C -0.9 °C 1013.8 hPa WNW 1.9 km/h 1.9 km/h 40 % 0.0 mm
16:50 12.3 °C -0.6 °C 1013.8 hPa SSW 5.6 km/h 5.6 km/h 41 % 0.0 mm
17:00 11.7 °C -1.4 °C 1012.8 hPa SW 5.6 km/h 5.6 km/h 40 % 0.0 mm
17:05 11.6 °C -1.6 °C 1012.8 hPa WSW 3.7 km/h 3.7 km/h 40 % 0.0 mm
17:10 11.4 °C -1.7 °C 1012.8 hPa SW 3.5 km/h   40 % 0.0 mm
17:15 11.0 °C -2.1 °C 1012.8 hPa Calm     40 % 0.0 mm
17:20 10.7 °C -2.4 °C 1012.8 hPa SW 2.6 km/h   40 % 0.0 mm
17:30 10.2 °C -2.8 °C 1012.8 hPa Calm     40 % 0.0 mm
17:35 9.9 °C -3.1 °C 1012.8 hPa Calm     40 % 0.0 mm
17:40 9.6 °C -3.3 °C 1012.8 hPa WNW 3.7 km/h 3.7 km/h 40 % 0.0 mm
17:50 9.4 °C -3.2 °C 1012.8 hPa SSW 3.9 km/h 3.9 km/h 41 % 0.0 mm
18:20 9.0 °C -3.6 °C 1012.8 hPa SW 1.9 km/h   41 % 0.0 mm
18:25 9.0 °C -3.6 °C 1012.8 hPa WSW 3.7 km/h 3.7 km/h 41 % 0.0 mm
18:30 8.9 °C -3.7 °C 1012.8 hPa ESE 3.9 km/h   41 % 0.0 mm
18:36 8.8 °C -3.8 °C 1012.8 hPa Calm     41 % 0.0 mm
18:40 8.8 °C -3.4 °C 1012.8 hPa WNW 3.7 km/h 3.7 km/h 42 % 0.0 mm
18:45 8.7 °C -3.5 °C 1011.7 hPa NW 4.7 km/h 4.7 km/h 42 % 0.0 mm
18:48 8.6 °C -3.6 °C 1011.7 hPa WSW 5.6 km/h 5.6 km/h 42 % 0.0 mm
18:53 8.6 °C -3.6 °C 1011.7 hPa WSW 3.9 km/h 3.9 km/h 42 % 0.0 mm
19:03 8.3 °C -3.6 °C 1011.7 hPa West 3.7 km/h 3.7 km/h 43 % 0.0 mm
19:08 8.2 °C -3.7 °C 1011.7 hPa West 1.9 km/h   43 % 0.0 mm
19:13 8.1 °C -3.7 °C 1011.7 hPa SSE 1.9 km/h   43 % 0.0 mm
19:18 7.9 °C -3.9 °C 1012.8 hPa WSW 3.7 km/h 3.7 km/h 43 % 0.0 mm
19:23 7.8 °C -3.7 °C 1012.8 hPa West 3.9 km/h 3.9 km/h 44 % 0.0 mm
19:33 7.6 °C -3.9 °C 1012.8 hPa SW 5.6 km/h 5.6 km/h 44 % 0.0 mm
19:43 7.1 °C -4.1 °C 1012.8 hPa SW 1.9 km/h   45 % 0.0 mm
19:48 6.8 °C -4.3 °C 1011.7 hPa Calm     45 % 0.0 mm
19:53 6.6 °C -4.5 °C 1011.7 hPa Calm     45 % 0.0 mm
19:58 6.5 °C -4.3 °C 1011.7 hPa NNE 3.7 km/h 3.7 km/h 46 % 0.0 mm
20:03 6.5 °C -4.3 °C 1011.7 hPa North 1.9 km/h 1.9 km/h 46 % 0.0 mm
20:08 6.6 °C -4.2 °C 1011.7 hPa Calm     46 % 0.0 mm
20:18 6.9 °C -3.7 °C 1011.7 hPa West 3.2 km/h 3.2 km/h 47 % 0.0 mm
20:33 6.5 °C -3.7 °C 1011.7 hPa NE 1.9 km/h   48 % 0.0 mm
20:38 6.4 °C -3.8 °C 1011.7 hPa NNE 3.7 km/h 3.7 km/h 48 % 0.0 mm
20:43 6.2 °C -4.0 °C 1011.7 hPa NNE 3.7 km/h 3.7 km/h 48 % 0.0 mm
20:48 6.2 °C -4.0 °C 1011.7 hPa NNE 3.7 km/h 3.7 km/h 48 % 0.0 mm
20:58 6.0 °C -3.9 °C 1011.7 hPa Calm     49 % 0.0 mm
21:03 6.1 °C -3.8 °C 1012.8 hPa NNE 2.3 km/h   49 % 0.0 mm
21:08 6.0 °C -3.9 °C 1012.8 hPa ENE 2.6 km/h 2.6 km/h 49 % 0.0 mm
21:13 6.0 °C -3.7 °C 1012.8 hPa NNE 3.7 km/h 3.7 km/h 50 % 0.0 mm
21:33 5.9 °C -3.7 °C 1011.7 hPa North 1.9 km/h   50 % 0.0 mm
21:38 6.0 °C -3.7 °C 1011.7 hPa WNW 2.3 km/h 2.3 km/h 50 % 0.0 mm
21:48 5.8 °C -3.8 °C 1011.7 hPa Calm     50 % 0.0 mm
21:53 5.7 °C -3.9 °C 1011.7 hPa WNW 2.6 km/h 2.6 km/h 50 % 0.0 mm
21:58 5.6 °C -3.8 °C 1011.7 hPa WNW 1.9 km/h 1.9 km/h 51 % 0.0 mm
22:03 5.4 °C -3.9 °C 1011.7 hPa West 1.9 km/h   51 % 0.0 mm
22:08 5.3 °C -4.1 °C 1011.7 hPa Calm     51 % 0.0 mm
22:13 5.4 °C -3.9 °C 1011.7 hPa NE 3.7 km/h 3.7 km/h 51 % 0.0 mm
22:18 5.4 °C -3.9 °C 1011.7 hPa NNE 3.7 km/h 3.7 km/h 51 % 0.0 mm
22:23 5.3 °C -4.1 °C 1011.7 hPa East 2.3 km/h   51 % 0.0 mm
22:28 5.0 °C -4.1 °C 1011.7 hPa SSE 4.7 km/h 4.7 km/h 52 % 0.0 mm
22:33 4.9 °C -4.4 °C 1011.7 hPa ENE 3.9 km/h   51 % 0.0 mm
22:38 4.8 °C -4.2 °C 1011.7 hPa NNE 3.7 km/h 3.7 km/h 52 % 0.0 mm
22:48 4.6 °C -4.4 °C 1011.7 hPa NNE 1.9 km/h 1.9 km/h 52 % 0.0 mm
22:53 4.6 °C -4.4 °C 1011.7 hPa NNE 2.3 km/h 2.3 km/h 52 % 0.0 mm
22:54 4.6 °C -4.4 °C 1011.7 hPa NNE 2.3 km/h 2.3 km/h 52 % 0.0 mm
22:59 4.5 °C -4.5 °C 1011.7 hPa NNE 1.9 km/h   52 % 0.0 mm
23:04 4.3 °C -4.4 °C 1010.7 hPa North 1.9 km/h 1.9 km/h 53 % 0.0 mm
23:09 4.3 °C -4.4 °C 1010.7 hPa WSW 2.6 km/h   53 % 0.0 mm
23:19 3.5 °C -5.4 °C 1010.7 hPa SW 3.7 km/h 3.7 km/h 52 % 0.0 mm
23:24 3.6 °C -5.1 °C 1010.7 hPa SW 3.7 km/h 3.7 km/h 53 % 0.0 mm
23:29 3.6 °C -5.1 °C 1010.7 hPa SW 1.9 km/h   53 % 0.0 mm
23:39 3.5 °C -5.2 °C 1010.7 hPa SW 3.7 km/h 3.7 km/h 53 % 0.0 mm
23:49 3.4 °C -5.1 °C 1010.7 hPa WNW 1.9 km/h   54 % 0.0 mm
23:59 3.4 °C -5.1 °C 1010.7 hPa WSW 3.9 km/h 3.9 km/h 54 % 0.0 mm
Meteo Sesrovires
Elogis d' Weather Underground - 3.25 mb

Guio original per  Jim McMurry - jmcmurry@mwt.net Adaptat per a la plantilla per  Wim van der Kuil - Leuven-Template.eu

Trobareu la nostra informacio del temps tambe a:

Weather Underground

AWEKAS